메인 페이지
METAR-TAF:

METAR-TAF

공항 :

하이데라바드, 인도

위도: 17-27N, 경도: 078-28E, 고도: 530m

현재 날씨관측

예보는 32분 전, 01:30시(UTC)에 발표되었습니다.
서남서8kt
온도 25°C
습도 83%
기압 1008 hPa
시정: 5000m
고도 1500ft 상공 구름 조금
고도 10000ft 상공 구름 보통
연무

METAR: VOHY 250130Z 25008KT 5000 HZ FEW015 SCT100 25/22 Q1008 NOSIG

시각: 07:32 (02:02 UTC)


TAF: 누락

4,000개 이상의 공항 관측 자료 및 예보 (METAR 및 TAF 보고).

지도상에서 검색 가능한 기상관측소가 노란 점과 빨간 점으로 표시되어 있습니다.

기상관측소 명을 보려면 표시 위로 마우스를 이동하세요.

날씨 관측과 예보를 보려면 클릭하세요.

지도 변경 : 확대하려면 엑스 표시가 있는 녹색 버튼, 축소하려면 빼기 표시가 있는 녹색 버튼, 다음 페이지의 지도를 보려면 녹색 화살표를 클릭하세요.


METAR-TAF: